| time (UTC) | temp F | wind direction | speed MPH | gust MPH | rain 1hr in | rain 24hr in | rain mn in | humidity % | barometer mb |
| 20260503202045 | 66 | 210 | 11.0 | 21.0 | 0.00 | 0.00 | 0.00 | 50 | 1004.0 |
| 20260503201552 | 66 | 221 | 9.0 | 21.0 | 0.00 | 0.00 | 0.00 | 48 | 1004.2 |
| 20260503201050 | 66 | 241 | 11.0 | 20.0 | 0.00 | 0.00 | 0.00 | 49 | 1004.3 |
| 20260503200548 | 66 | 232 | 11.0 | 21.0 | 0.00 | 0.00 | 0.00 | 48 | 1004.5 |
| 20260503200101 | 66 | 219 | 12.0 | 22.0 | 0.00 | 0.00 | 0.00 | 50 | 1004.5 |
| 20260503195548 | 65 | 241 | 11.0 | 22.0 | 0.00 | 0.00 | 0.00 | 49 | 1004.4 |
| 20260503195048 | 65 | 243 | 10.0 | 25.0 | 0.00 | 0.00 | 0.00 | 49 | 1004.5 |
| 20260503194602 | 65 | 226 | 14.0 | 25.0 | 0.00 | 0.00 | 0.00 | 49 | 1004.5 |
| 20260503194046 | 65 | 225 | 10.0 | 22.0 | 0.00 | 0.00 | 0.00 | 50 | 1004.6 |
| 20260503193545 | 65 | 225 | 13.0 | 22.0 | 0.00 | 0.00 | 0.00 | 49 | 1004.7 |
| 20260503193058 | 65 | 232 | 10.0 | 20.0 | 0.00 | 0.00 | 0.00 | 51 | 1004.7 |
| 20260503192546 | 64 | 228 | 12.0 | 26.0 | 0.00 | 0.00 | 0.00 | 50 | 1004.8 |
| 20260503192047 | 64 | 236 | 16.0 | 26.0 | 0.00 | 0.00 | 0.00 | 49 | 1004.7 |
| 20260503191554 | 64 | 233 | 13.0 | 25.0 | 0.00 | 0.00 | 0.00 | 49 | 1004.8 |
| 20260503191049 | 64 | 200 | 15.0 | 25.0 | 0.00 | 0.00 | 0.00 | 49 | 1004.7 |
| 20260503190548 | 64 | 235 | 15.0 | 24.0 | 0.00 | 0.00 | 0.00 | 49 | 1004.9 |
| 20260503190051 | 64 | 239 | 12.0 | 25.0 | 0.00 | 0.00 | 0.00 | 50 | 1004.9 |
| 20260503185548 | 64 | 182 | 12.0 | 26.0 | 0.00 | 0.00 | 0.00 | 51 | 1005.0 |
| 20260503185048 | 64 | 217 | 14.0 | 26.0 | 0.00 | 0.00 | 0.00 | 49 | 1005.1 |
| 20260503184601 | 63 | 199 | 13.0 | 21.0 | 0.00 | 0.00 | 0.00 | 49 | 1004.9 |
| 20260503184048 | 63 | 221 | 14.0 | 26.0 | 0.00 | 0.00 | 0.00 | 49 | 1005.0 |
| 20260503183549 | 63 | 193 | 12.0 | 26.0 | 0.00 | 0.00 | 0.00 | 49 | 1004.9 |
| 20260503183050 | 63 | 226 | 15.0 | 23.0 | 0.00 | 0.00 | 0.00 | 50 | 1005.1 |
| 20260503182547 | 63 | 240 | 15.0 | 26.0 | 0.00 | 0.00 | 0.00 | 50 | 1005.1 |
| 20260503182048 | 63 | 231 | 14.0 | 26.0 | 0.00 | 0.00 | 0.00 | 52 | 1005.2 |
| 20260503181610 | 63 | 141 | 11.0 | 18.0 | 0.00 | 0.00 | 0.00 | 52 | 1005.2 |
| 20260503181049 | 62 | 192 | 10.0 | 22.0 | 0.00 | 0.00 | 0.00 | 53 | 1005.2 |
| 20260503180547 | 62 | 155 | 11.0 | 22.0 | 0.00 | 0.00 | 0.00 | 54 | 1005.2 |
| 20260503180112 | 62 | 220 | 11.0 | 23.0 | 0.00 | 0.00 | 0.00 | 54 | 1005.5 |
| 20260503175549 | 61 | 217 | 13.0 | 23.0 | 0.00 | 0.00 | 0.00 | 54 | 1005.5 |
| 20260503175048 | 61 | 201 | 10.0 | 21.0 | 0.00 | 0.00 | 0.00 | 56 | 1005.7 |
| 20260503174559 | 61 | 217 | 12.0 | 23.0 | 0.00 | 0.00 | 0.00 | 53 | 1005.8 |
| 20260503174048 | 61 | 191 | 12.0 | 23.0 | 0.00 | 0.00 | 0.00 | 54 | 1005.8 |
| 20260503173548 | 61 | 219 | 13.0 | 24.0 | 0.00 | 0.00 | 0.00 | 52 | 1005.8 |
| 20260503173103 | 61 | 155 | 14.0 | 26.0 | 0.00 | 0.00 | 0.00 | 54 | 1005.9 |
| 20260503172551 | 61 | 219 | 15.0 | 29.0 | 0.00 | 0.00 | 0.00 | 53 | 1005.9 |
| 20260503172048 | 61 | 236 | 15.0 | 29.0 | 0.00 | 0.00 | 0.00 | 52 | 1006.1 |
| 20260503171553 | 61 | 274 | 15.0 | 29.0 | 0.00 | 0.00 | 0.00 | 53 | 1006.1 |
| 20260503171048 | 61 | 211 | 13.0 | 22.0 | 0.00 | 0.00 | 0.00 | 51 | 1006.2 |
| 20260503170549 | 61 | 187 | 8.0 | 30.0 | 0.00 | 0.00 | 0.00 | 53 | 1006.2 |
| 20260503150549 | 55 | 216 | 9.0 | 17.0 | 0.00 | 0.00 | 0.00 | 69 | 1007.9 |
| 20260503150103 | 54 | 217 | 9.0 | 17.0 | 0.00 | 0.00 | 0.00 | 71 | 1008.0 |
| 20260503131049 | 51 | 228 | 10.0 | 17.0 | 0.00 | 0.00 | 0.00 | 68 | 1009.3 |
| 20260503130554 | 51 | 191 | 8.0 | 16.0 | 0.00 | 0.00 | 0.00 | 67 | 1009.4 |
| 20260503110549 | 49 | 219 | 7.0 | 12.0 | 0.00 | 0.00 | 0.00 | 58 | 1009.6 |
| 20260503081553 | 48 | 207 | 4.0 | 9.0 | 0.00 | 0.00 | 0.00 | 56 | 1010.8 |
| 20260503081050 | 48 | 213 | 5.0 | 9.0 | 0.00 | 0.00 | 0.00 | 57 | 1010.9 |
| 20260503080549 | 48 | 171 | 5.0 | 9.0 | 0.00 | 0.00 | 0.00 | 56 | 1010.9 |
| 20260503072551 | 47 | 204 | 4.0 | 7.0 | 0.00 | 0.00 | 0.00 | 57 | 1011.0 |
| 20260503072048 | 47 | 185 | 4.0 | 6.0 | 0.00 | 0.00 | 0.00 | 57 | 1011.0 |
| 20260503071557 | 47 | 177 | 4.0 | 6.0 | 0.00 | 0.00 | 0.00 | 57 | 1011.1 |
| 20260503071052 | 47 | 203 | 3.0 | 6.0 | 0.00 | 0.00 | 0.00 | 56 | 1011.1 |
| 20260503070549 | 47 | 197 | 2.0 | 5.0 | 0.00 | 0.00 | 0.00 | 57 | 1011.2 |
| 20260503055051 | 49 | 203 | 5.0 | 10.0 | 0.00 | 0.00 | 0.00 | 52 | 1011.8 |
| 20260503054553 | 49 | 219 | 4.0 | 10.0 | 0.00 | 0.00 | 0.00 | 52 | 1011.7 |
| 20260503054049 | 49 | 197 | 4.0 | 9.0 | 0.00 | 0.00 | 0.00 | 52 | 1011.7 |
| 20260503053549 | 49 | 199 | 4.0 | 7.0 | 0.00 | 0.00 | 0.00 | 52 | 1011.8 |
| 20260503053050 | 49 | 174 | 4.0 | 9.0 | 0.00 | 0.00 | 0.00 | 52 | 1011.8 |
| 20260503052549 | 49 | 202 | 4.0 | 10.0 | 0.00 | 0.00 | 0.00 | 52 | 1011.8 |
| 20260503052048 | 49 | 167 | 4.0 | 10.0 | 0.00 | 0.00 | 0.00 | 52 | 1012.0 |
| 20260503051550 | 49 | 178 | 5.0 | 10.0 | 0.00 | 0.00 | 0.00 | 52 | 1012.0 |
| 20260503051049 | 49 | 179 | 4.0 | 8.0 | 0.00 | 0.00 | 0.00 | 52 | 1012.0 |
| 20260503050550 | 49 | 185 | 3.0 | 7.0 | 0.00 | 0.00 | 0.00 | 52 | 1012.0 |
| 20260503050056 | 49 | 196 | 3.0 | 7.0 | 0.00 | 0.00 | 0.00 | 51 | 1012.1 |
| 20260503045548 | 49 | 180 | 3.0 | 7.0 | 0.00 | 0.00 | 0.00 | 51 | 1012.1 |
| 20260503045046 | 50 | 193 | 4.0 | 7.0 | 0.00 | 0.00 | 0.00 | 51 | 1012.1 |
| 20260503044559 | 49 | 181 | 3.0 | 7.0 | 0.00 | 0.00 | 0.00 | 51 | 1012.1 |
| 20260503044050 | 50 | 193 | 3.0 | 7.0 | 0.00 | 0.00 | 0.00 | 51 | 1012.2 |
| 20260503043549 | 49 | 180 | 3.0 | 7.0 | 0.00 | 0.00 | 0.00 | 51 | 1012.3 |
| 20260503043054 | 50 | 196 | 3.0 | 7.0 | 0.00 | 0.00 | 0.00 | 51 | 1012.3 |
| 20260503042549 | 49 | 175 | 3.0 | 7.0 | 0.00 | 0.00 | 0.00 | 51 | 1012.4 |
| 20260503042049 | 49 | 172 | 3.0 | 5.0 | 0.00 | 0.00 | 0.00 | 52 | 1012.3 |
| 20260503041550 | 49 | 193 | 3.0 | 4.0 | 0.00 | 0.00 | 0.00 | 51 | 1012.4 |
| 20260503041048 | 49 | 184 | 2.0 | 5.0 | 0.00 | 0.00 | 0.00 | 51 | 1012.5 |
| 20260503040546 | 49 | 148 | 3.0 | 5.0 | 0.00 | 0.00 | 0.00 | 51 | 1012.4 |
| 20260503035546 | 49 | 179 | 3.0 | 5.0 | 0.00 | 0.00 | 0.00 | 51 | 1012.5 |
| 20260503035046 | 49 | 181 | 2.0 | 5.0 | 0.00 | 0.00 | 0.00 | 51 | 1012.7 |
| 20260503034601 | 49 | 212 | 2.0 | 6.0 | 0.00 | 0.00 | 0.00 | 51 | 1012.7 |
| 20260503034049 | 49 | 206 | 2.0 | 6.0 | 0.00 | 0.00 | 0.00 | 51 | 1012.7 |
| 20260503033553 | 49 | 175 | 1.0 | 4.0 | 0.00 | 0.00 | 0.00 | 51 | 1012.7 |
| 20260503033057 | 49 | 175 | 2.0 | 4.0 | 0.00 | 0.00 | 0.00 | 51 | 1012.8 |
| 20260503032550 | 49 | 186 | 2.0 | 4.0 | 0.00 | 0.00 | 0.00 | 52 | 1012.8 |
| 20260503032050 | 49 | 184 | 1.0 | 4.0 | 0.00 | 0.00 | 0.00 | 52 | 1012.9 |
| 20260503031550 | 49 | 171 | 2.0 | 4.0 | 0.00 | 0.00 | 0.00 | 52 | 1012.9 |
| 20260503031047 | 49 | 205 | 2.0 | 3.0 | 0.00 | 0.00 | 0.00 | 52 | 1013.0 |
| 20260503030548 | 49 | 196 | 2.0 | 3.0 | 0.00 | 0.00 | 0.00 | 52 | 1013.1 |
| 20260503030124 | 49 | 184 | 1.0 | 3.0 | 0.00 | 0.00 | 0.00 | 52 | 1013.0 |
| 20260503025549 | 49 | 179 | 2.0 | 3.0 | 0.00 | 0.00 | 0.00 | 52 | 1013.1 |
| 20260503025049 | 49 | 181 | 2.0 | 3.0 | 0.00 | 0.00 | 0.00 | 52 | 1013.1 |
| 20260503024557 | 49 | 190 | 2.0 | 3.0 | 0.00 | 0.00 | 0.00 | 53 | 1013.1 |
| 20260503024046 | 49 | 152 | 1.0 | 3.0 | 0.00 | 0.00 | 0.00 | 53 | 1013.1 |
| 20260503023549 | 49 | 211 | 1.0 | 2.0 | 0.00 | 0.00 | 0.00 | 54 | 1013.1 |
| 20260503023054 | 49 | 213 | 0.0 | 1.0 | 0.00 | 0.00 | 0.00 | 54 | 1013.1 |
| 20260503022548 | 49 | 213 | 0.0 | 1.0 | 0.00 | 0.00 | 0.00 | 53 | 1013.1 |
| 20260503022049 | 49 | 0 | 0.0 | 1.0 | 0.00 | 0.00 | 0.00 | 54 | 1013.1 |
| 20260503021552 | 49 | 0 | 0.0 | 1.0 | 0.00 | 0.00 | 0.00 | 53 | 1013.1 |
| 20260503021047 | 49 | 213 | 0.0 | 1.0 | 0.00 | 0.00 | 0.00 | 53 | 1013.1 |
| 20260503020548 | 49 | 213 | 0.0 | 2.0 | 0.00 | 0.00 | 0.00 | 53 | 1013.1 |
| 20260503020055 | 50 | 213 | 1.0 | 2.0 | 0.00 | 0.00 | 0.00 | 52 | 1013.0 |
| 20260503015547 | 49 | 213 | 0.0 | 1.0 | 0.00 | 0.00 | 0.00 | 52 | 1013.1 |
| 20260503015046 | 50 | 0 | 0.0 | 1.0 | 0.00 | 0.00 | 0.00 | 51 | 1013.0 |
| 20260503014607 | 50 | 0 | 0.0 | 1.0 | 0.00 | 0.00 | 0.00 | 51 | 1012.9 |
| 20260503014047 | 51 | 0 | 0.0 | 1.0 | 0.00 | 0.00 | 0.00 | 50 | 1012.9 |
| 20260503013547 | 51 | 0 | 0.0 | 1.0 | 0.00 | 0.00 | 0.00 | 49 | 1012.9 |
| 20260503013052 | 52 | 0 | 0.0 | 2.0 | 0.00 | 0.00 | 0.00 | 49 | 1012.8 |
| 20260503012546 | 52 | 0 | 0.0 | 4.0 | 0.00 | 0.00 | 0.00 | 49 | 1012.8 |
| 20260503012045 | 53 | 213 | 1.0 | 4.0 | 0.00 | 0.00 | 0.00 | 47 | 1012.8 |
| 20260503011555 | 53 | 213 | 2.0 | 4.0 | 0.00 | 0.00 | 0.00 | 47 | 1012.8 |
| 20260503011047 | 53 | 224 | 1.0 | 4.0 | 0.00 | 0.00 | 0.00 | 46 | 1012.7 |
| 20260503010545 | 54 | 224 | 1.0 | 4.0 | 0.00 | 0.00 | 0.00 | 46 | 1012.8 |
| 20260503010108 | 54 | 224 | 2.0 | 6.0 | 0.00 | 0.00 | 0.00 | 45 | 1012.7 |
| 20260503005548 | 55 | 224 | 4.0 | 7.0 | 0.00 | 0.00 | 0.00 | 44 | 1012.7 |
| 20260503005049 | 55 | 232 | 2.0 | 7.0 | 0.00 | 0.00 | 0.00 | 44 | 1012.8 |
| 20260503004557 | 55 | 210 | 3.0 | 7.0 | 0.00 | 0.00 | 0.00 | 43 | 1012.8 |
| 20260503004048 | 55 | 219 | 5.0 | 7.0 | 0.00 | 0.00 | 0.00 | 43 | 1012.7 |
| 20260503003548 | 56 | 244 | 5.0 | 9.0 | 0.00 | 0.00 | 0.00 | 42 | 1012.6 |
| 20260503003118 | 56 | 233 | 4.0 | 10.0 | 0.00 | 0.00 | 0.00 | 41 | 1012.8 |
| 20260503002548 | 56 | 222 | 6.0 | 11.0 | 0.00 | 0.00 | 0.00 | 41 | 1012.7 |
| 20260503002049 | 56 | 228 | 5.0 | 11.0 | 0.00 | 0.00 | 0.00 | 41 | 1012.8 |
| 20260503001553 | 57 | 225 | 7.0 | 11.0 | 0.00 | 0.00 | 0.00 | 40 | 1012.9 |
| 20260503001051 | 57 | 235 | 6.0 | 10.0 | 0.00 | 0.00 | 0.00 | 40 | 1012.9 |
| 20260503000549 | 57 | 216 | 5.0 | 10.0 | 0.00 | 0.00 | 0.00 | 39 | 1012.9 |
| 20260503000056 | 57 | 255 | 6.0 | 12.0 | 0.00 | 0.00 | 0.00 | 40 | 1013.0 |
| 20260502235552 | 58 | 221 | 8.0 | 12.0 | 0.00 | 0.00 | 0.00 | 38 | 1013.1 |
| 20260502235048 | 58 | 218 | 6.0 | 12.0 | 0.00 | 0.00 | 0.00 | 38 | 1013.1 |
| 20260502234557 | 58 | 205 | 5.0 | 11.0 | 0.00 | 0.00 | 0.00 | 39 | 1013.2 |
| 20260502234048 | 58 | 248 | 5.0 | 14.0 | 0.00 | 0.00 | 0.00 | 39 | 1013.2 |
| 20260502233552 | 58 | 217 | 7.0 | 14.0 | 0.00 | 0.00 | 0.00 | 38 | 1013.3 |
| 20260502233050 | 58 | 207 | 5.0 | 13.0 | 0.00 | 0.00 | 0.00 | 38 | 1013.3 |
| 20260502232549 | 57 | 248 | 8.0 | 16.0 | 0.00 | 0.00 | 0.00 | 37 | 1013.3 |
| 20260502232048 | 57 | 233 | 7.0 | 16.0 | 0.00 | 0.00 | 0.00 | 38 | 1013.3 |
| 20260502231604 | 58 | 228 | 7.0 | 14.0 | 0.00 | 0.00 | 0.00 | 37 | 1013.3 |
| 20260502231049 | 58 | 231 | 8.0 | 19.0 | 0.00 | 0.00 | 0.00 | 39 | 1013.4 |
| 20260502230553 | 58 | 241 | 9.0 | 19.0 | 0.00 | 0.00 | 0.00 | 38 | 1013.4 |
| 20260502230050 | 58 | 261 | 11.0 | 19.0 | 0.00 | 0.00 | 0.00 | 39 | 1013.4 |
| 20260502225548 | 58 | 235 | 8.0 | 15.0 | 0.00 | 0.00 | 0.00 | 38 | 1013.4 |
| 20260502225046 | 58 | 240 | 8.0 | 14.0 | 0.00 | 0.00 | 0.00 | 38 | 1013.5 |
| 20260502224555 | 58 | 246 | 7.0 | 19.0 | 0.00 | 0.00 | 0.00 | 40 | 1013.6 |
| 20260502224048 | 57 | 218 | 9.0 | 19.0 | 0.00 | 0.00 | 0.00 | 38 | 1013.7 |
| 20260502223548 | 58 | 228 | 10.0 | 19.0 | 0.00 | 0.00 | 0.00 | 37 | 1013.8 |
| 20260502223053 | 58 | 250 | 9.0 | 18.0 | 0.00 | 0.00 | 0.00 | 38 | 1013.7 |
| 20260502222550 | 58 | 236 | 6.0 | 11.0 | 0.00 | 0.00 | 0.00 | 38 | 1013.7 |
| 20260502222048 | 58 | 224 | 5.0 | 14.0 | 0.00 | 0.00 | 0.00 | 39 | 1013.7 |
| 20260502221552 | 57 | 225 | 7.0 | 16.0 | 0.00 | 0.00 | 0.00 | 38 | 1013.8 |
| 20260502221052 | 58 | 231 | 11.0 | 21.0 | 0.00 | 0.00 | 0.00 | 37 | 1013.9 |
| 20260502220549 | 58 | 247 | 11.0 | 21.0 | 0.00 | 0.00 | 0.00 | 38 | 1014.0 |
| 20260502220055 | 58 | 254 | 8.0 | 17.0 | 0.00 | 0.00 | 0.00 | 37 | 1014.0 |
| 20260502215548 | 57 | 273 | 11.0 | 17.0 | 0.00 | 0.00 | 0.00 | 38 | 1014.0 |
| 20260502215051 | 57 | 231 | 5.0 | 15.0 | 0.00 | 0.00 | 0.00 | 39 | 1014.1 |
| 20260502214558 | 57 | 274 | 8.0 | 15.0 | 0.00 | 0.00 | 0.00 | 37 | 1014.1 |
| 20260502214048 | 57 | 222 | 8.0 | 14.0 | 0.00 | 0.00 | 0.00 | 37 | 1014.1 |
| 20260502213548 | 58 | 240 | 6.0 | 13.0 | 0.00 | 0.00 | 0.00 | 39 | 1014.1 |
| 20260502213053 | 57 | 264 | 6.0 | 12.0 | 0.00 | 0.00 | 0.00 | 37 | 1014.1 |
| 20260502212548 | 57 | 280 | 5.0 | 15.0 | 0.00 | 0.00 | 0.00 | 38 | 1014.2 |
| 20260502212047 | 56 | 276 | 5.0 | 18.0 | 0.00 | 0.00 | 0.00 | 37 | 1014.3 |
| 20260502211554 | 57 | 232 | 10.0 | 18.0 | 0.00 | 0.00 | 0.00 | 36 | 1014.3 |
| 20260502211048 | 57 | 229 | 12.0 | 18.0 | 0.00 | 0.00 | 0.00 | 37 | 1014.3 |
| 20260502210548 | 57 | 286 | 10.0 | 16.0 | 0.00 | 0.00 | 0.00 | 37 | 1014.3 |
| 20260502210054 | 57 | 257 | 7.0 | 15.0 | 0.00 | 0.00 | 0.00 | 38 | 1014.4 |
| 20260502205548 | 57 | 226 | 5.0 | 15.0 | 0.00 | 0.00 | 0.00 | 36 | 1014.4 |
| 20260502205048 | 57 | 233 | 7.0 | 15.0 | 0.00 | 0.00 | 0.00 | 36 | 1014.4 |
| 20260502204609 | 57 | 240 | 4.0 | 11.0 | 0.00 | 0.00 | 0.00 | 39 | 1014.6 |
| 20260502204048 | 56 | 257 | 6.0 | 11.0 | 0.00 | 0.00 | 0.00 | 38 | 1014.6 |
| 20260502203549 | 56 | 278 | 5.0 | 16.0 | 0.00 | 0.00 | 0.00 | 38 | 1014.7 |
| 20260502203113 | 57 | 240 | 7.0 | 20.0 | 0.00 | 0.00 | 0.00 | 38 | 1014.8 |
| 20260502202550 | 56 | 243 | 9.0 | 20.0 | 0.00 | 0.00 | 0.00 | 39 | 1014.9 |